sensor_id;sensor_type;location;lat;lon;timestamp;pressure;altitude;pressure_sealevel;temperature
79053;BMP280;68451;49.510;6.026;2024-02-04T00:00:19;99166.91;;;8.46
79053;BMP280;68451;49.510;6.026;2024-02-04T00:02:46;99161.44;;;8.41
79053;BMP280;68451;49.510;6.026;2024-02-04T00:05:13;99060.13;;;7.73
79053;BMP280;68451;49.510;6.026;2024-02-04T00:07:39;99136.31;;;8.33
79053;BMP280;68451;49.510;6.026;2024-02-04T00:10:06;99121.56;;;8.40
79053;BMP280;68451;49.510;6.026;2024-02-04T00:12:33;99126.97;;;8.39
79053;BMP280;68451;49.510;6.026;2024-02-04T00:15:00;99146.63;;;8.56
79053;BMP280;68451;49.510;6.026;2024-02-04T00:17:27;99128.84;;;8.45
79053;BMP280;68451;49.510;6.026;2024-02-04T00:19:57;99112.75;;;8.27
79053;BMP280;68451;49.510;6.026;2024-02-04T00:22:23;99166.28;;;8.59
79053;BMP280;68451;49.510;6.026;2024-02-04T00:24:50;99108.28;;;8.21
79053;BMP280;68451;49.510;6.026;2024-02-04T00:27:17;99176.25;;;8.55
79053;BMP280;68451;49.510;6.026;2024-02-04T00:29:45;99166.47;;;8.42
79053;BMP280;68451;49.510;6.026;2024-02-04T00:32:12;99175.28;;;8.56
79053;BMP280;68451;49.510;6.026;2024-02-04T00:34:38;98987.69;;;7.40
79053;BMP280;68451;49.510;6.026;2024-02-04T00:37:05;99148.69;;;8.46
79053;BMP280;68451;49.510;6.026;2024-02-04T00:39:32;99112.25;;;8.31
79053;BMP280;68451;49.510;6.026;2024-02-04T00:41:59;99124.63;;;8.29
79053;BMP280;68451;49.510;6.026;2024-02-04T00:44:26;99123.63;;;8.30
79053;BMP280;68451;49.510;6.026;2024-02-04T00:46:53;99147.28;;;8.43
79053;BMP280;68451;49.510;6.026;2024-02-04T00:49:20;99151.56;;;8.51
79053;BMP280;68451;49.510;6.026;2024-02-04T00:51:47;99123.28;;;8.33
79053;BMP280;68451;49.510;6.026;2024-02-04T00:54:14;99125.44;;;8.30
79053;BMP280;68451;49.510;6.026;2024-02-04T00:56:40;99121.03;;;8.30
79053;BMP280;68451;49.510;6.026;2024-02-04T00:59:07;99087.44;;;8.06
79053;BMP280;68451;49.510;6.026;2024-02-04T01:01:34;99109.41;;;8.18
79053;BMP280;68451;49.510;6.026;2024-02-04T01:04:01;99058.66;;;7.93
79053;BMP280;68451;49.510;6.026;2024-02-04T01:06:28;99171.22;;;8.53
79053;BMP280;68451;49.510;6.026;2024-02-04T01:09:05;98991.97;;;7.48
79053;BMP280;68451;49.510;6.026;2024-02-04T01:11:33;99112.47;;;8.22
79053;BMP280;68451;49.510;6.026;2024-02-04T01:14:00;99128.34;;;8.27
79053;BMP280;68451;49.510;6.026;2024-02-04T01:16:27;99170.78;;;8.50
79053;BMP280;68451;49.510;6.026;2024-02-04T01:18:54;99122.34;;;8.26
79053;BMP280;68451;49.510;6.026;2024-02-04T01:21:21;99171.41;;;8.52
79053;BMP280;68451;49.510;6.026;2024-02-04T01:23:48;99118.75;;;8.27
79053;BMP280;68451;49.510;6.026;2024-02-04T01:26:14;99150.75;;;8.36
79053;BMP280;68451;49.510;6.026;2024-02-04T01:28:41;99146.19;;;8.38
79053;BMP280;68451;49.510;6.026;2024-02-04T01:31:08;99130.97;;;8.27
79053;BMP280;68451;49.510;6.026;2024-02-04T01:33:35;99156.16;;;8.34
79053;BMP280;68451;49.510;6.026;2024-02-04T01:36:02;99004.00;;;7.49
79053;BMP280;68451;49.510;6.026;2024-02-04T01:38:29;99100.91;;;8.09
79053;BMP280;68451;49.510;6.026;2024-02-04T01:40:56;99149.31;;;8.33
79053;BMP280;68451;49.510;6.026;2024-02-04T01:43:24;99125.84;;;8.19
79053;BMP280;68451;49.510;6.026;2024-02-04T01:45:51;99116.34;;;8.11
79053;BMP280;68451;49.510;6.026;2024-02-04T01:48:20;99029.63;;;7.52
79053;BMP280;68451;49.510;6.026;2024-02-04T01:50:48;99161.16;;;8.36
79053;BMP280;68451;49.510;6.026;2024-02-04T01:53:19;99042.22;;;7.63
79053;BMP280;68451;49.510;6.026;2024-02-04T01:55:48;99050.44;;;7.67
79053;BMP280;68451;49.510;6.026;2024-02-04T01:58:16;99161.50;;;8.33
79053;BMP280;68451;49.510;6.026;2024-02-04T02:00:43;99038.16;;;7.60
79053;BMP280;68451;49.510;6.026;2024-02-04T02:03:12;99011.06;;;7.55
79053;BMP280;68451;49.510;6.026;2024-02-04T02:05:40;99166.53;;;8.49
79053;BMP280;68451;49.510;6.026;2024-02-04T02:08:07;99149.41;;;8.40
79053;BMP280;68451;49.510;6.026;2024-02-04T02:10:34;99128.28;;;8.35
79053;BMP280;68451;49.510;6.026;2024-02-04T02:15:40;99134.22;;;8.29
79053;BMP280;68451;49.510;6.026;2024-02-04T02:18:26;99134.50;;;8.34
79053;BMP280;68451;49.510;6.026;2024-02-04T02:21:24;99096.94;;;8.14
79053;BMP280;68451;49.510;6.026;2024-02-04T02:26:44;98968.31;;;7.43
79053;BMP280;68451;49.510;6.026;2024-02-04T02:29:11;99121.31;;;8.35
79053;BMP280;68451;49.510;6.026;2024-02-04T02:31:38;99124.09;;;8.34
79053;BMP280;68451;49.510;6.026;2024-02-04T02:34:15;98966.25;;;7.38
79053;BMP280;68451;49.510;6.026;2024-02-04T02:36:50;99122.47;;;8.33
79053;BMP280;68451;49.510;6.026;2024-02-04T02:39:25;99110.09;;;8.35
79053;BMP280;68451;49.510;6.026;2024-02-04T02:41:57;99053.47;;;8.07
79053;BMP280;68451;49.510;6.026;2024-02-04T02:44:25;98981.13;;;7.59
79053;BMP280;68451;49.510;6.026;2024-02-04T02:46:54;98972.09;;;7.55
79053;BMP280;68451;49.510;6.026;2024-02-04T02:49:22;99082.53;;;8.26
79053;BMP280;68451;49.510;6.026;2024-02-04T02:51:49;99059.66;;;8.06
79053;BMP280;68451;49.510;6.026;2024-02-04T02:54:16;99077.41;;;8.18
79053;BMP280;68451;49.510;6.026;2024-02-04T02:56:43;99115.03;;;8.44
79053;BMP280;68451;49.510;6.026;2024-02-04T02:59:10;99116.47;;;8.47
79053;BMP280;68451;49.510;6.026;2024-02-04T03:01:39;99093.50;;;8.36
79053;BMP280;68451;49.510;6.026;2024-02-04T03:04:06;99085.69;;;8.36
79053;BMP280;68451;49.510;6.026;2024-02-04T03:06:34;99098.41;;;8.31
79053;BMP280;68451;49.510;6.026;2024-02-04T03:09:01;99110.19;;;8.41
79053;BMP280;68451;49.510;6.026;2024-02-04T03:11:27;99089.69;;;8.24
79053;BMP280;68451;49.510;6.026;2024-02-04T03:13:55;99100.03;;;8.32
79053;BMP280;68451;49.510;6.026;2024-02-04T03:16:21;98769.16;;;6.24
79053;BMP280;68451;49.510;6.026;2024-02-04T03:18:48;98945.63;;;7.37
79053;BMP280;68451;49.510;6.026;2024-02-04T03:21:16;99086.66;;;8.20
79053;BMP280;68451;49.510;6.026;2024-02-04T03:23:44;99105.53;;;8.37
79053;BMP280;68451;49.510;6.026;2024-02-04T03:26:11;99069.06;;;8.07
79053;BMP280;68451;49.510;6.026;2024-02-04T03:28:38;99086.94;;;8.25
79053;BMP280;68451;49.510;6.026;2024-02-04T03:31:05;98990.56;;;7.60
79053;BMP280;68451;49.510;6.026;2024-02-04T03:33:32;98984.03;;;7.49
79053;BMP280;68451;49.510;6.026;2024-02-04T03:35:59;99095.34;;;8.27
79053;BMP280;68451;49.510;6.026;2024-02-04T03:38:26;99031.19;;;7.90
79053;BMP280;68451;49.510;6.026;2024-02-04T03:40:54;99115.84;;;8.45
79053;BMP280;68451;49.510;6.026;2024-02-04T03:43:21;98944.84;;;7.36
79053;BMP280;68451;49.510;6.026;2024-02-04T03:45:48;99102.47;;;8.33
79053;BMP280;68451;49.510;6.026;2024-02-04T03:48:15;99076.03;;;8.22
79053;BMP280;68451;49.510;6.026;2024-02-04T03:50:42;98970.56;;;7.60
79053;BMP280;68451;49.510;6.026;2024-02-04T03:53:10;99107.41;;;8.43
79053;BMP280;68451;49.510;6.026;2024-02-04T03:55:36;98921.50;;;7.28
79053;BMP280;68451;49.510;6.026;2024-02-04T03:58:03;99074.44;;;8.21
79053;BMP280;68451;49.510;6.026;2024-02-04T04:00:30;99069.06;;;8.22
79053;BMP280;68451;49.510;6.026;2024-02-04T04:02:57;99085.91;;;8.26
79053;BMP280;68451;49.510;6.026;2024-02-04T04:05:24;99073.81;;;8.19
79053;BMP280;68451;49.510;6.026;2024-02-04T04:07:53;99088.28;;;8.21
79053;BMP280;68451;49.510;6.026;2024-02-04T04:10:19;99079.66;;;8.21
79053;BMP280;68451;49.510;6.026;2024-02-04T04:12:46;98973.25;;;7.52
79053;BMP280;68451;49.510;6.026;2024-02-04T04:15:13;99091.03;;;8.20
79053;BMP280;68451;49.510;6.026;2024-02-04T04:17:40;99113.47;;;8.21
79053;BMP280;68451;49.510;6.026;2024-02-04T04:20:07;99130.38;;;8.39
79053;BMP280;68451;49.510;6.026;2024-02-04T04:22:34;98995.03;;;7.51
79053;BMP280;68451;49.510;6.026;2024-02-04T04:25:01;98920.88;;;7.11
79053;BMP280;68451;49.510;6.026;2024-02-04T04:27:28;99093.66;;;8.20
79053;BMP280;68451;49.510;6.026;2024-02-04T04:29:55;99040.88;;;7.96
79053;BMP280;68451;49.510;6.026;2024-02-04T04:32:22;99111.97;;;8.41
79053;BMP280;68451;49.510;6.026;2024-02-04T04:34:49;99093.22;;;8.31
79053;BMP280;68451;49.510;6.026;2024-02-04T04:37:15;99084.88;;;8.21
79053;BMP280;68451;49.510;6.026;2024-02-04T04:39:42;99107.41;;;8.43
79053;BMP280;68451;49.510;6.026;2024-02-04T04:42:09;99081.34;;;8.14
79053;BMP280;68451;49.510;6.026;2024-02-04T04:44:36;99085.47;;;8.23
79053;BMP280;68451;49.510;6.026;2024-02-04T04:47:03;99117.88;;;8.35
79053;BMP280;68451;49.510;6.026;2024-02-04T04:49:30;99117.34;;;8.39
79053;BMP280;68451;49.510;6.026;2024-02-04T04:51:57;99096.69;;;8.23
79053;BMP280;68451;49.510;6.026;2024-02-04T04:54:23;99073.53;;;8.14
79053;BMP280;68451;49.510;6.026;2024-02-04T04:56:50;99075.81;;;8.17
79053;BMP280;68451;49.510;6.026;2024-02-04T04:59:18;99070.22;;;8.20
79053;BMP280;68451;49.510;6.026;2024-02-04T05:01:46;98996.97;;;7.72
79053;BMP280;68451;49.510;6.026;2024-02-04T05:04:14;99075.06;;;8.23
79053;BMP280;68451;49.510;6.026;2024-02-04T05:06:41;99077.06;;;8.21
79053;BMP280;68451;49.510;6.026;2024-02-04T05:09:08;99081.78;;;8.17
79053;BMP280;68451;49.510;6.026;2024-02-04T05:11:35;98954.34;;;7.44
79053;BMP280;68451;49.510;6.026;2024-02-04T05:14:02;99114.75;;;8.39
79053;BMP280;68451;49.510;6.026;2024-02-04T05:16:30;99113.59;;;8.42
79053;BMP280;68451;49.510;6.026;2024-02-04T05:18:57;99060.53;;;8.14
79053;BMP280;68451;49.510;6.026;2024-02-04T05:21:23;99088.22;;;8.29
79053;BMP280;68451;49.510;6.026;2024-02-04T05:23:50;99102.56;;;8.40
79053;BMP280;68451;49.510;6.026;2024-02-04T05:26:18;98954.97;;;7.46
79053;BMP280;68451;49.510;6.026;2024-02-04T05:28:45;99064.94;;;8.13
79053;BMP280;68451;49.510;6.026;2024-02-04T05:31:12;98944.94;;;7.43
79053;BMP280;68451;49.510;6.026;2024-02-04T05:33:39;98988.69;;;7.69
79053;BMP280;68451;49.510;6.026;2024-02-04T05:36:06;98758.13;;;6.22
79053;BMP280;68451;49.510;6.026;2024-02-04T05:38:33;98959.16;;;7.47
79053;BMP280;68451;49.510;6.026;2024-02-04T05:41:00;99081.44;;;8.20
79053;BMP280;68451;49.510;6.026;2024-02-04T05:43:27;99040.19;;;8.02
79053;BMP280;68451;49.510;6.026;2024-02-04T05:45:54;98953.38;;;7.45
79053;BMP280;68451;49.510;6.026;2024-02-04T05:48:21;98943.50;;;7.40
79053;BMP280;68451;49.510;6.026;2024-02-04T05:50:48;99093.56;;;8.28
79053;BMP280;68451;49.510;6.026;2024-02-04T05:53:15;99069.78;;;8.16
79053;BMP280;68451;49.510;6.026;2024-02-04T05:55:43;99091.56;;;8.15
79053;BMP280;68451;49.510;6.026;2024-02-04T05:58:10;99076.69;;;8.09
79053;BMP280;68451;49.510;6.026;2024-02-04T06:00:37;99084.75;;;8.14
79053;BMP280;68451;49.510;6.026;2024-02-04T06:03:04;99100.28;;;8.22
79053;BMP280;68451;49.510;6.026;2024-02-04T06:05:32;99087.00;;;8.17
79053;BMP280;68451;49.510;6.026;2024-02-04T06:07:58;98928.78;;;7.18
79053;BMP280;68451;49.510;6.026;2024-02-04T06:10:25;99121.13;;;8.37
79053;BMP280;68451;49.510;6.026;2024-02-04T06:12:52;99099.28;;;8.23
79053;BMP280;68451;49.510;6.026;2024-02-04T06:15:19;99042.31;;;7.84
79053;BMP280;68451;49.510;6.026;2024-02-04T06:17:48;99127.69;;;8.33
79053;BMP280;68451;49.510;6.026;2024-02-04T06:20:14;99087.44;;;8.06
79053;BMP280;68451;49.510;6.026;2024-02-04T06:22:41;99067.88;;;7.95
79053;BMP280;68451;49.510;6.026;2024-02-04T06:25:08;99119.56;;;8.28
79053;BMP280;68451;49.510;6.026;2024-02-04T06:27:35;99096.13;;;8.13
79053;BMP280;68451;49.510;6.026;2024-02-04T06:30:02;99115.66;;;8.32
79053;BMP280;68451;49.510;6.026;2024-02-04T06:32:33;99098.84;;;8.20
79053;BMP280;68451;49.510;6.026;2024-02-04T06:35:00;99031.72;;;7.86
79053;BMP280;68451;49.510;6.026;2024-02-04T06:37:27;99086.00;;;8.18
79053;BMP280;68451;49.510;6.026;2024-02-04T06:39:54;99070.94;;;8.14
79053;BMP280;68451;49.510;6.026;2024-02-04T06:42:20;99073.63;;;8.05
79053;BMP280;68451;49.510;6.026;2024-02-04T06:44:47;99105.31;;;8.24
79053;BMP280;68451;49.510;6.026;2024-02-04T06:47:14;99107.91;;;8.24
79053;BMP280;68451;49.510;6.026;2024-02-04T06:49:44;99110.16;;;8.27
79053;BMP280;68451;49.510;6.026;2024-02-04T06:52:14;98993.75;;;7.47
79053;BMP280;68451;49.510;6.026;2024-02-04T06:54:41;99093.00;;;8.18
79053;BMP280;68451;49.510;6.026;2024-02-04T06:57:08;99075.59;;;8.03
79053;BMP280;68451;49.510;6.026;2024-02-04T06:59:35;99103.06;;;8.21
79053;BMP280;68451;49.510;6.026;2024-02-04T07:02:02;99072.75;;;7.98
79053;BMP280;68451;49.510;6.026;2024-02-04T07:04:29;99034.22;;;7.64
79053;BMP280;68451;49.510;6.026;2024-02-04T07:06:56;99103.34;;;8.11
79053;BMP280;68451;49.510;6.026;2024-02-04T07:09:23;99105.94;;;8.11
79053;BMP280;68451;49.510;6.026;2024-02-04T07:11:50;99096.50;;;8.10
79053;BMP280;68451;49.510;6.026;2024-02-04T07:14:17;99099.03;;;8.18
79053;BMP280;68451;49.510;6.026;2024-02-04T07:16:44;99036.31;;;7.84
79053;BMP280;68451;49.510;6.026;2024-02-04T07:19:10;99099.13;;;8.25
79053;BMP280;68451;49.510;6.026;2024-02-04T07:21:37;99082.31;;;8.13
79053;BMP280;68451;49.510;6.026;2024-02-04T07:24:04;99065.91;;;7.97
79053;BMP280;68451;49.510;6.026;2024-02-04T07:26:31;99082.59;;;8.18
79053;BMP280;68451;49.510;6.026;2024-02-04T07:28:58;98962.13;;;7.44
79053;BMP280;68451;49.510;6.026;2024-02-04T07:31:25;98935.69;;;7.26
79053;BMP280;68451;49.510;6.026;2024-02-04T07:33:52;99061.59;;;8.04
79053;BMP280;68451;49.510;6.026;2024-02-04T07:36:19;99018.19;;;7.90
79053;BMP280;68451;49.510;6.026;2024-02-04T07:38:46;98988.03;;;7.52
79053;BMP280;68451;49.510;6.026;2024-02-04T07:41:13;98997.25;;;7.54
79053;BMP280;68451;49.510;6.026;2024-02-04T07:43:41;99131.44;;;8.30
79053;BMP280;68451;49.510;6.026;2024-02-04T07:46:10;99098.41;;;8.16
79053;BMP280;68451;49.510;6.026;2024-02-04T07:48:38;99116.00;;;8.29
79053;BMP280;68451;49.510;6.026;2024-02-04T07:51:06;99092.19;;;8.17
79053;BMP280;68451;49.510;6.026;2024-02-04T07:53:33;99089.41;;;8.19
79053;BMP280;68451;49.510;6.026;2024-02-04T07:56:02;99093.66;;;8.20
79053;BMP280;68451;49.510;6.026;2024-02-04T07:58:33;98993.34;;;7.58
79053;BMP280;68451;49.510;6.026;2024-02-04T08:01:00;99053.53;;;7.99
79053;BMP280;68451;49.510;6.026;2024-02-04T08:03:27;99091.50;;;8.23
79053;BMP280;68451;49.510;6.026;2024-02-04T08:05:54;99079.81;;;8.19
79053;BMP280;68451;49.510;6.026;2024-02-04T08:08:21;98952.72;;;7.43
79053;BMP280;68451;49.510;6.026;2024-02-04T08:10:48;99079.72;;;8.13
79053;BMP280;68451;49.510;6.026;2024-02-04T08:13:15;99101.44;;;8.20
79053;BMP280;68451;49.510;6.026;2024-02-04T08:15:42;99097.88;;;8.21
79053;BMP280;68451;49.510;6.026;2024-02-04T08:18:09;99035.66;;;7.82
79053;BMP280;68451;49.510;6.026;2024-02-04T08:20:36;99093.13;;;8.24
79053;BMP280;68451;49.510;6.026;2024-02-04T08:23:03;99033.16;;;7.88
79053;BMP280;68451;49.510;6.026;2024-02-04T08:25:31;98962.31;;;7.42
79053;BMP280;68451;49.510;6.026;2024-02-04T08:27:58;99097.94;;;8.27
79053;BMP280;68451;49.510;6.026;2024-02-04T08:30:25;99081.88;;;8.24
79053;BMP280;68451;49.510;6.026;2024-02-04T08:32:52;99094.31;;;8.36
79053;BMP280;68451;49.510;6.026;2024-02-04T08:35:19;99096.47;;;8.33
79053;BMP280;68451;49.510;6.026;2024-02-04T08:37:46;99140.78;;;8.54
79053;BMP280;68451;49.510;6.026;2024-02-04T08:40:13;99117.28;;;8.47
79053;BMP280;68451;49.510;6.026;2024-02-04T08:42:40;99119.34;;;8.52
79053;BMP280;68451;49.510;6.026;2024-02-04T08:45:07;99124.00;;;8.57
79053;BMP280;68451;49.510;6.026;2024-02-04T08:47:34;99143.03;;;8.72
79053;BMP280;68451;49.510;6.026;2024-02-04T08:50:01;99101.19;;;8.59
79053;BMP280;68451;49.510;6.026;2024-02-04T08:52:28;99107.75;;;8.54
79053;BMP280;68451;49.510;6.026;2024-02-04T08:54:55;99114.84;;;8.61
79053;BMP280;68451;49.510;6.026;2024-02-04T08:57:22;99118.06;;;8.63
79053;BMP280;68451;49.510;6.026;2024-02-04T08:59:49;99021.34;;;8.00
79053;BMP280;68451;49.510;6.026;2024-02-04T09:02:16;99104.44;;;8.61
79053;BMP280;68451;49.510;6.026;2024-02-04T09:04:44;99136.72;;;8.81
79053;BMP280;68451;49.510;6.026;2024-02-04T09:07:11;99071.31;;;8.40
79053;BMP280;68451;49.510;6.026;2024-02-04T09:09:38;99122.09;;;8.80
79053;BMP280;68451;49.510;6.026;2024-02-04T09:12:05;99101.56;;;8.70
79053;BMP280;68451;49.510;6.026;2024-02-04T09:14:32;99083.06;;;8.65
79053;BMP280;68451;49.510;6.026;2024-02-04T09:17:02;99089.47;;;8.84
79053;BMP280;68451;49.510;6.026;2024-02-04T09:19:29;99121.06;;;9.10
79053;BMP280;68451;49.510;6.026;2024-02-04T09:21:58;99113.97;;;9.04
79053;BMP280;68451;49.510;6.026;2024-02-04T09:24:25;99132.72;;;9.14
79053;BMP280;68451;49.510;6.026;2024-02-04T09:26:51;99097.00;;;8.93
79053;BMP280;68451;49.510;6.026;2024-02-04T09:29:20;99099.41;;;9.10
79053;BMP280;68451;49.510;6.026;2024-02-04T09:46:55;99073.00;;;8.98
79053;BMP280;68451;49.510;6.026;2024-02-04T09:49:26;99114.38;;;9.22
79053;BMP280;68451;49.510;6.026;2024-02-04T09:51:56;99125.34;;;9.39
79053;BMP280;68451;49.510;6.026;2024-02-04T09:54:27;99087.88;;;9.19
79053;BMP280;68451;49.510;6.026;2024-02-04T09:56:54;99107.06;;;9.32
79053;BMP280;68451;49.510;6.026;2024-02-04T09:59:21;99035.31;;;8.94
79053;BMP280;68451;49.510;6.026;2024-02-04T10:01:48;99116.16;;;9.43
79053;BMP280;68451;49.510;6.026;2024-02-04T10:04:16;99063.53;;;9.12
79053;BMP280;68451;49.510;6.026;2024-02-04T10:06:43;99061.00;;;8.97
79053;BMP280;68451;49.510;6.026;2024-02-04T10:09:10;99064.75;;;8.94
79053;BMP280;68451;49.510;6.026;2024-02-04T10:11:37;99105.88;;;9.35
79053;BMP280;68451;49.510;6.026;2024-02-04T10:14:04;99106.50;;;9.37
79053;BMP280;68451;49.510;6.026;2024-02-04T10:16:31;99078.44;;;9.18
79053;BMP280;68451;49.510;6.026;2024-02-04T10:18:58;99108.72;;;9.40
79053;BMP280;68451;49.510;6.026;2024-02-04T10:21:25;99114.53;;;9.42
79053;BMP280;68451;49.510;6.026;2024-02-04T10:23:52;99061.31;;;9.09
79053;BMP280;68451;49.510;6.026;2024-02-04T10:26:19;99093.44;;;9.16
79053;BMP280;68451;49.510;6.026;2024-02-04T10:28:48;99108.59;;;9.27
79053;BMP280;68451;49.510;6.026;2024-02-04T10:31:15;99080.78;;;9.13
79053;BMP280;68451;49.510;6.026;2024-02-04T10:33:42;99134.06;;;9.46
79053;BMP280;68451;49.510;6.026;2024-02-04T10:36:10;98955.66;;;8.42
79053;BMP280;68451;49.510;6.026;2024-02-04T10:38:37;99089.97;;;9.30
79053;BMP280;68451;49.510;6.026;2024-02-04T10:41:06;99141.25;;;9.65
79053;BMP280;68451;49.510;6.026;2024-02-04T10:43:33;99077.94;;;9.29
79053;BMP280;68451;49.510;6.026;2024-02-04T10:46:07;98896.09;;;8.18
79053;BMP280;68451;49.510;6.026;2024-02-04T10:48:36;99113.25;;;9.53
79053;BMP280;68451;49.510;6.026;2024-02-04T10:51:14;99136.78;;;9.80
79053;BMP280;68451;49.510;6.026;2024-02-04T10:53:41;99135.56;;;9.83
79053;BMP280;68451;49.510;6.026;2024-02-04T10:56:30;98988.16;;;8.89
79053;BMP280;68451;49.510;6.026;2024-02-04T10:59:01;99060.38;;;9.37
79053;BMP280;68451;49.510;6.026;2024-02-04T11:01:30;99097.03;;;9.57
79053;BMP280;68451;49.510;6.026;2024-02-04T11:03:58;99022.97;;;9.24
79053;BMP280;68451;49.510;6.026;2024-02-04T11:06:26;99041.44;;;9.29
79053;BMP280;68451;49.510;6.026;2024-02-04T11:08:55;99048.69;;;9.33
79053;BMP280;68451;49.510;6.026;2024-02-04T11:11:23;99116.97;;;9.86
79053;BMP280;68451;49.510;6.026;2024-02-04T11:13:53;99083.13;;;9.71
79053;BMP280;68451;49.510;6.026;2024-02-04T11:24:34;98959.94;;;9.14
79053;BMP280;68451;49.510;6.026;2024-02-04T11:27:07;99010.34;;;9.49
79053;BMP280;68451;49.510;6.026;2024-02-04T11:29:34;99100.03;;;10.03
79053;BMP280;68451;49.510;6.026;2024-02-04T11:32:02;99080.22;;;9.87
79053;BMP280;68451;49.510;6.026;2024-02-04T11:34:30;99035.47;;;9.56
79053;BMP280;68451;49.510;6.026;2024-02-04T11:36:57;99048.59;;;9.69
79053;BMP280;68451;49.510;6.026;2024-02-04T11:39:26;99075.34;;;9.78
79053;BMP280;68451;49.510;6.026;2024-02-04T11:41:53;99064.63;;;9.66
79053;BMP280;68451;49.510;6.026;2024-02-04T11:46:49;99035.91;;;9.38
79053;BMP280;68451;49.510;6.026;2024-02-04T11:49:24;99095.59;;;9.76
79053;BMP280;68451;49.510;6.026;2024-02-04T11:51:52;99042.75;;;9.39
79053;BMP280;68451;49.510;6.026;2024-02-04T11:54:20;99082.13;;;9.72
79053;BMP280;68451;49.510;6.026;2024-02-04T11:56:49;99077.03;;;9.64
79053;BMP280;68451;49.510;6.026;2024-02-04T11:59:20;98980.84;;;8.99
79053;BMP280;68451;49.510;6.026;2024-02-04T12:01:53;99056.47;;;9.48
79053;BMP280;68451;49.510;6.026;2024-02-04T12:04:20;99011.38;;;9.26
79053;BMP280;68451;49.510;6.026;2024-02-04T12:06:48;99087.38;;;9.79
79053;BMP280;68451;49.510;6.026;2024-02-04T12:09:17;99009.28;;;9.43
79053;BMP280;68451;49.510;6.026;2024-02-04T12:11:49;99061.94;;;9.81
79053;BMP280;68451;49.510;6.026;2024-02-04T12:14:16;99017.88;;;9.65
79053;BMP280;68451;49.510;6.026;2024-02-04T12:16:46;99048.25;;;9.79
79053;BMP280;68451;49.510;6.026;2024-02-04T12:19:13;99015.09;;;9.66
79053;BMP280;68451;49.510;6.026;2024-02-04T12:21:41;99080.19;;;10.09
79053;BMP280;68451;49.510;6.026;2024-02-04T12:24:08;99050.38;;;9.97
79053;BMP280;68451;49.510;6.026;2024-02-04T12:26:35;99044.19;;;9.98
79053;BMP280;68451;49.510;6.026;2024-02-04T12:29:02;98937.19;;;9.29
79053;BMP280;68451;49.510;6.026;2024-02-04T12:31:29;99009.16;;;9.79
79053;BMP280;68451;49.510;6.026;2024-02-04T12:33:59;99008.16;;;9.80
79053;BMP280;68451;49.510;6.026;2024-02-04T12:36:31;98995.69;;;9.75
79053;BMP280;68451;49.510;6.026;2024-02-04T12:39:00;99020.56;;;9.78
79053;BMP280;68451;49.510;6.026;2024-02-04T12:41:28;99041.97;;;9.95
79053;BMP280;68451;49.510;6.026;2024-02-04T12:43:58;99016.38;;;9.77
79053;BMP280;68451;49.510;6.026;2024-02-04T12:46:27;99056.47;;;10.04
79053;BMP280;68451;49.510;6.026;2024-02-04T12:48:55;99006.19;;;9.82
79053;BMP280;68451;49.510;6.026;2024-02-04T12:51:30;99036.50;;;9.89
79053;BMP280;68451;49.510;6.026;2024-02-04T12:54:08;98878.47;;;8.98
79053;BMP280;68451;49.510;6.026;2024-02-04T12:56:40;99016.59;;;9.82
79053;BMP280;68451;49.510;6.026;2024-02-04T12:59:08;98917.13;;;9.23
79053;BMP280;68451;49.510;6.026;2024-02-04T14:31:27;98994.88;;;9.75
79053;BMP280;68451;49.510;6.026;2024-02-04T14:33:55;98970.34;;;9.63
79053;BMP280;68451;49.510;6.026;2024-02-04T14:36:22;98962.84;;;9.53
79053;BMP280;68451;49.510;6.026;2024-02-04T14:38:49;98976.16;;;9.65
79053;BMP280;68451;49.510;6.026;2024-02-04T14:41:16;98944.84;;;9.58
79053;BMP280;68451;49.510;6.026;2024-02-04T14:43:43;98996.53;;;9.82
79053;BMP280;68451;49.510;6.026;2024-02-04T14:46:10;98964.69;;;9.59
79053;BMP280;68451;49.510;6.026;2024-02-04T14:48:37;98890.16;;;9.09
79053;BMP280;68451;49.510;6.026;2024-02-04T14:51:09;98984.25;;;9.76
79053;BMP280;68451;49.510;6.026;2024-02-04T14:53:36;99009.63;;;9.89
79053;BMP280;68451;49.510;6.026;2024-02-04T14:56:03;98994.63;;;9.70
79053;BMP280;68451;49.510;6.026;2024-02-04T14:58:30;98955.78;;;9.47
79053;BMP280;68451;49.510;6.026;2024-02-04T15:00:57;98827.31;;;8.63
79053;BMP280;68451;49.510;6.026;2024-02-04T15:03:24;99003.31;;;9.77
79053;BMP280;68451;49.510;6.026;2024-02-04T15:05:51;98987.16;;;9.60
79053;BMP280;68451;49.510;6.026;2024-02-04T15:08:19;98968.22;;;9.45
79053;BMP280;68451;49.510;6.026;2024-02-04T15:10:46;98795.84;;;8.37
79053;BMP280;68451;49.510;6.026;2024-02-04T15:13:14;98974.66;;;9.49
79053;BMP280;68451;49.510;6.026;2024-02-04T15:15:42;98960.31;;;9.38
79053;BMP280;68451;49.510;6.026;2024-02-04T15:18:10;99013.53;;;9.72
79053;BMP280;68451;49.510;6.026;2024-02-04T15:20:37;98949.00;;;9.25
79053;BMP280;68451;49.510;6.026;2024-02-04T15:23:04;99000.97;;;9.54
79053;BMP280;68451;49.510;6.026;2024-02-04T15:25:32;98809.59;;;8.31
79053;BMP280;68451;49.510;6.026;2024-02-04T15:27:59;99007.41;;;9.58
79053;BMP280;68451;49.510;6.026;2024-02-04T15:30:26;98998.69;;;9.44
79053;BMP280;68451;49.510;6.026;2024-02-04T15:32:53;99011.97;;;9.50
79053;BMP280;68451;49.510;6.026;2024-02-04T15:35:21;98987.34;;;9.31
79053;BMP280;68451;49.510;6.026;2024-02-04T15:37:48;99011.91;;;9.43
79053;BMP280;68451;49.510;6.026;2024-02-04T15:40:15;98961.91;;;9.12
79053;BMP280;68451;49.510;6.026;2024-02-04T15:42:42;98943.56;;;8.98
79053;BMP280;68451;49.510;6.026;2024-02-04T15:45:10;98938.94;;;8.94
79053;BMP280;68451;49.510;6.026;2024-02-04T15:47:46;98993.28;;;9.25
79053;BMP280;68451;49.510;6.026;2024-02-04T15:50:15;98887.06;;;8.50
79053;BMP280;68451;49.510;6.026;2024-02-04T15:52:42;98764.59;;;7.73
79053;BMP280;68451;49.510;6.026;2024-02-04T15:55:10;98973.53;;;9.09
79053;BMP280;68451;49.510;6.026;2024-02-04T15:57:39;98994.06;;;9.19
79053;BMP280;68451;49.510;6.026;2024-02-04T16:00:08;98972.22;;;8.98
79053;BMP280;68451;49.510;6.026;2024-02-04T16:02:45;98983.97;;;9.09
79053;BMP280;68451;49.510;6.026;2024-02-04T16:05:15;98828.50;;;8.03
79053;BMP280;68451;49.510;6.026;2024-02-04T16:07:43;98950.03;;;8.81
79053;BMP280;68451;49.510;6.026;2024-02-04T16:10:15;98822.44;;;7.96
79053;BMP280;68451;49.510;6.026;2024-02-04T16:12:58;98957.25;;;8.79
79053;BMP280;68451;49.510;6.026;2024-02-04T16:15:28;98920.41;;;8.61
79053;BMP280;68451;49.510;6.026;2024-02-04T16:17:56;98964.69;;;8.82
79053;BMP280;68451;49.510;6.026;2024-02-04T16:20:26;98962.19;;;8.74
79053;BMP280;68451;49.510;6.026;2024-02-04T16:22:53;98983.03;;;8.95
79053;BMP280;68451;49.510;6.026;2024-02-04T16:25:20;98987.59;;;8.93